sensor_id;sensor_type;location;lat;lon;timestamp;P1;durP1;ratioP1;P2;durP2;ratioP2
29838;SDS011;18669;53.356;-1.464;2023-05-27T00:00:01;9.73;;;2.85;;
29838;SDS011;18669;53.356;-1.464;2023-05-27T00:02:47;7.63;;;3.25;;
29838;SDS011;18669;53.356;-1.464;2023-05-27T00:05:32;8.35;;;3.35;;
29838;SDS011;18669;53.356;-1.464;2023-05-27T00:08:16;9.75;;;3.40;;
29838;SDS011;18669;53.356;-1.464;2023-05-27T00:11:01;12.10;;;3.72;;
29838;SDS011;18669;53.356;-1.464;2023-05-27T00:13:46;6.63;;;2.90;;
29838;SDS011;18669;53.356;-1.464;2023-05-27T00:16:31;9.13;;;3.60;;
29838;SDS011;18669;53.356;-1.464;2023-05-27T00:19:20;9.65;;;3.75;;
29838;SDS011;18669;53.356;-1.464;2023-05-27T00:22:05;8.80;;;3.40;;
29838;SDS011;18669;53.356;-1.464;2023-05-27T00:24:50;10.82;;;3.40;;
29838;SDS011;18669;53.356;-1.464;2023-05-27T00:27:35;10.77;;;3.72;;
29838;SDS011;18669;53.356;-1.464;2023-05-27T00:30:20;17.52;;;4.10;;
29838;SDS011;18669;53.356;-1.464;2023-05-27T00:33:05;11.13;;;3.72;;
29838;SDS011;18669;53.356;-1.464;2023-05-27T00:35:49;7.70;;;3.10;;
29838;SDS011;18669;53.356;-1.464;2023-05-27T00:38:34;9.85;;;3.85;;
29838;SDS011;18669;53.356;-1.464;2023-05-27T00:41:19;10.43;;;3.67;;
29838;SDS011;18669;53.356;-1.464;2023-05-27T00:44:04;10.65;;;3.40;;
29838;SDS011;18669;53.356;-1.464;2023-05-27T00:46:49;10.45;;;3.42;;
29838;SDS011;18669;53.356;-1.464;2023-05-27T00:49:34;6.95;;;3.58;;
29838;SDS011;18669;53.356;-1.464;2023-05-27T00:52:19;10.30;;;4.10;;
29838;SDS011;18669;53.356;-1.464;2023-05-27T00:55:04;11.88;;;3.70;;
29838;SDS011;18669;53.356;-1.464;2023-05-27T00:57:51;12.88;;;3.50;;
29838;SDS011;18669;53.356;-1.464;2023-05-27T01:00:38;10.45;;;3.92;;
29838;SDS011;18669;53.356;-1.464;2023-05-27T01:03:23;7.80;;;3.50;;
29838;SDS011;18669;53.356;-1.464;2023-05-27T01:12:57;9.82;;;3.58;;
29838;SDS011;18669;53.356;-1.464;2023-05-27T01:15:45;8.75;;;3.70;;
29838;SDS011;18669;53.356;-1.464;2023-05-27T01:21:17;9.43;;;3.20;;
29838;SDS011;18669;53.356;-1.464;2023-05-27T01:24:03;9.40;;;3.60;;
29838;SDS011;18669;53.356;-1.464;2023-05-27T01:26:48;12.73;;;4.00;;
29838;SDS011;18669;53.356;-1.464;2023-05-27T01:29:33;14.95;;;3.90;;
29838;SDS011;18669;53.356;-1.464;2023-05-27T01:32:37;15.15;;;4.20;;
29838;SDS011;18669;53.356;-1.464;2023-05-27T01:35:46;10.93;;;4.15;;
29838;SDS011;18669;53.356;-1.464;2023-05-27T01:38:35;12.60;;;3.83;;
29838;SDS011;18669;53.356;-1.464;2023-05-27T01:41:24;12.15;;;3.83;;
29838;SDS011;18669;53.356;-1.464;2023-05-27T01:44:10;9.80;;;3.63;;
29838;SDS011;18669;53.356;-1.464;2023-05-27T01:46:59;10.85;;;3.88;;
29838;SDS011;18669;53.356;-1.464;2023-05-27T01:49:45;13.75;;;3.83;;
29838;SDS011;18669;53.356;-1.464;2023-05-27T01:52:29;10.23;;;4.00;;
29838;SDS011;18669;53.356;-1.464;2023-05-27T01:55:14;11.85;;;4.05;;
29838;SDS011;18669;53.356;-1.464;2023-05-27T01:57:59;6.13;;;3.20;;
29838;SDS011;18669;53.356;-1.464;2023-05-27T02:00:44;9.95;;;3.80;;
29838;SDS011;18669;53.356;-1.464;2023-05-27T02:03:29;10.65;;;3.78;;
29838;SDS011;18669;53.356;-1.464;2023-05-27T02:06:13;11.60;;;3.80;;
29838;SDS011;18669;53.356;-1.464;2023-05-27T02:08:58;9.00;;;4.30;;
29838;SDS011;18669;53.356;-1.464;2023-05-27T02:11:43;11.55;;;3.85;;
29838;SDS011;18669;53.356;-1.464;2023-05-27T02:14:28;13.00;;;4.30;;
29838;SDS011;18669;53.356;-1.464;2023-05-27T02:17:13;10.15;;;3.75;;
29838;SDS011;18669;53.356;-1.464;2023-05-27T02:19:59;12.75;;;3.78;;
29838;SDS011;18669;53.356;-1.464;2023-05-27T02:22:43;10.32;;;3.60;;
29838;SDS011;18669;53.356;-1.464;2023-05-27T02:25:29;11.13;;;3.22;;
29838;SDS011;18669;53.356;-1.464;2023-05-27T02:28:14;9.63;;;3.38;;
29838;SDS011;18669;53.356;-1.464;2023-05-27T02:31:00;11.10;;;3.60;;
29838;SDS011;18669;53.356;-1.464;2023-05-27T02:33:45;7.60;;;3.22;;
29838;SDS011;18669;53.356;-1.464;2023-05-27T02:36:29;11.27;;;3.67;;
29838;SDS011;18669;53.356;-1.464;2023-05-27T02:39:14;9.80;;;3.10;;
29838;SDS011;18669;53.356;-1.464;2023-05-27T02:41:59;9.52;;;3.55;;
29838;SDS011;18669;53.356;-1.464;2023-05-27T02:44:44;12.85;;;3.60;;
29838;SDS011;18669;53.356;-1.464;2023-05-27T02:47:29;10.98;;;3.30;;
29838;SDS011;18669;53.356;-1.464;2023-05-27T02:50:14;10.35;;;3.65;;
29838;SDS011;18669;53.356;-1.464;2023-05-27T02:52:59;14.88;;;3.75;;
29838;SDS011;18669;53.356;-1.464;2023-05-27T02:55:43;12.63;;;3.40;;
29838;SDS011;18669;53.356;-1.464;2023-05-27T02:58:28;11.23;;;3.72;;
29838;SDS011;18669;53.356;-1.464;2023-05-27T03:01:13;10.60;;;3.42;;
29838;SDS011;18669;53.356;-1.464;2023-05-27T03:03:58;11.57;;;3.90;;
29838;SDS011;18669;53.356;-1.464;2023-05-27T03:06:43;14.60;;;4.20;;
29838;SDS011;18669;53.356;-1.464;2023-05-27T03:09:27;13.13;;;3.88;;
29838;SDS011;18669;53.356;-1.464;2023-05-27T03:12:12;10.60;;;3.80;;
29838;SDS011;18669;53.356;-1.464;2023-05-27T03:14:57;11.20;;;3.75;;
29838;SDS011;18669;53.356;-1.464;2023-05-27T03:17:42;10.73;;;3.65;;
29838;SDS011;18669;53.356;-1.464;2023-05-27T03:20:27;11.43;;;3.88;;
29838;SDS011;18669;53.356;-1.464;2023-05-27T03:23:12;15.65;;;3.80;;
29838;SDS011;18669;53.356;-1.464;2023-05-27T03:25:57;8.55;;;3.88;;
29838;SDS011;18669;53.356;-1.464;2023-05-27T03:28:42;12.98;;;4.30;;
29838;SDS011;18669;53.356;-1.464;2023-05-27T03:31:27;10.18;;;3.30;;
29838;SDS011;18669;53.356;-1.464;2023-05-27T03:34:11;10.50;;;3.83;;
29838;SDS011;18669;53.356;-1.464;2023-05-27T03:36:56;11.25;;;3.38;;
29838;SDS011;18669;53.356;-1.464;2023-05-27T03:39:41;12.98;;;3.47;;
29838;SDS011;18669;53.356;-1.464;2023-05-27T03:42:26;13.65;;;3.45;;
29838;SDS011;18669;53.356;-1.464;2023-05-27T03:45:11;15.95;;;5.03;;
29838;SDS011;18669;53.356;-1.464;2023-05-27T03:47:56;15.48;;;3.97;;
29838;SDS011;18669;53.356;-1.464;2023-05-27T03:50:41;11.25;;;3.88;;
29838;SDS011;18669;53.356;-1.464;2023-05-27T03:53:26;12.45;;;3.70;;
29838;SDS011;18669;53.356;-1.464;2023-05-27T03:56:10;8.68;;;3.50;;
29838;SDS011;18669;53.356;-1.464;2023-05-27T03:58:55;12.32;;;3.85;;
29838;SDS011;18669;53.356;-1.464;2023-05-27T04:01:41;10.13;;;3.40;;
29838;SDS011;18669;53.356;-1.464;2023-05-27T04:04:28;12.35;;;3.47;;
29838;SDS011;18669;53.356;-1.464;2023-05-27T04:07:13;13.70;;;3.50;;
29838;SDS011;18669;53.356;-1.464;2023-05-27T04:09:57;9.90;;;3.42;;
29838;SDS011;18669;53.356;-1.464;2023-05-27T04:12:42;8.35;;;3.55;;
29838;SDS011;18669;53.356;-1.464;2023-05-27T04:15:27;12.20;;;3.90;;
29838;SDS011;18669;53.356;-1.464;2023-05-27T04:18:12;12.85;;;4.47;;
29838;SDS011;18669;53.356;-1.464;2023-05-27T04:20:57;9.68;;;3.47;;
29838;SDS011;18669;53.356;-1.464;2023-05-27T04:23:42;9.40;;;3.60;;
29838;SDS011;18669;53.356;-1.464;2023-05-27T04:26:27;11.60;;;3.50;;
29838;SDS011;18669;53.356;-1.464;2023-05-27T04:29:12;11.65;;;3.67;;
29838;SDS011;18669;53.356;-1.464;2023-05-27T04:31:57;10.63;;;3.78;;
29838;SDS011;18669;53.356;-1.464;2023-05-27T04:34:42;12.27;;;4.07;;
29838;SDS011;18669;53.356;-1.464;2023-05-27T04:37:27;8.43;;;3.03;;
29838;SDS011;18669;53.356;-1.464;2023-05-27T04:40:12;11.50;;;3.83;;
29838;SDS011;18669;53.356;-1.464;2023-05-27T04:42:57;14.13;;;3.35;;
29838;SDS011;18669;53.356;-1.464;2023-05-27T04:45:42;9.57;;;3.60;;
29838;SDS011;18669;53.356;-1.464;2023-05-27T04:48:27;14.80;;;3.63;;
29838;SDS011;18669;53.356;-1.464;2023-05-27T04:51:13;11.55;;;3.95;;
29838;SDS011;18669;53.356;-1.464;2023-05-27T04:53:59;10.25;;;3.38;;
29838;SDS011;18669;53.356;-1.464;2023-05-27T04:56:47;13.57;;;3.75;;
29838;SDS011;18669;53.356;-1.464;2023-05-27T04:59:35;13.45;;;3.50;;
29838;SDS011;18669;53.356;-1.464;2023-05-27T05:02:31;13.40;;;3.35;;
29838;SDS011;18669;53.356;-1.464;2023-05-27T05:05:20;10.15;;;3.85;;
29838;SDS011;18669;53.356;-1.464;2023-05-27T05:08:05;11.10;;;4.15;;
29838;SDS011;18669;53.356;-1.464;2023-05-27T05:10:50;10.57;;;3.25;;
29838;SDS011;18669;53.356;-1.464;2023-05-27T05:13:35;7.70;;;3.17;;
29838;SDS011;18669;53.356;-1.464;2023-05-27T05:16:20;16.27;;;4.20;;
29838;SDS011;18669;53.356;-1.464;2023-05-27T05:19:05;8.93;;;3.17;;
29838;SDS011;18669;53.356;-1.464;2023-05-27T05:21:50;7.95;;;2.92;;
29838;SDS011;18669;53.356;-1.464;2023-05-27T05:24:34;8.95;;;3.53;;
29838;SDS011;18669;53.356;-1.464;2023-05-27T05:27:19;9.20;;;3.40;;
29838;SDS011;18669;53.356;-1.464;2023-05-27T05:30:04;9.30;;;3.28;;
29838;SDS011;18669;53.356;-1.464;2023-05-27T05:32:50;8.23;;;3.42;;
29838;SDS011;18669;53.356;-1.464;2023-05-27T05:35:34;12.75;;;4.03;;
29838;SDS011;18669;53.356;-1.464;2023-05-27T05:38:20;9.55;;;3.20;;
29838;SDS011;18669;53.356;-1.464;2023-05-27T05:41:04;11.68;;;4.88;;
29838;SDS011;18669;53.356;-1.464;2023-05-27T05:43:49;15.10;;;6.38;;
29838;SDS011;18669;53.356;-1.464;2023-05-27T05:46:34;13.60;;;3.97;;
29838;SDS011;18669;53.356;-1.464;2023-05-27T05:49:19;9.48;;;3.53;;
29838;SDS011;18669;53.356;-1.464;2023-05-27T05:52:04;9.45;;;3.38;;
29838;SDS011;18669;53.356;-1.464;2023-05-27T05:54:49;14.68;;;3.30;;
29838;SDS011;18669;53.356;-1.464;2023-05-27T05:57:34;10.10;;;3.13;;
29838;SDS011;18669;53.356;-1.464;2023-05-27T06:00:19;8.98;;;2.83;;
29838;SDS011;18669;53.356;-1.464;2023-05-27T06:03:04;10.02;;;5.18;;
29838;SDS011;18669;53.356;-1.464;2023-05-27T06:05:49;13.27;;;3.92;;
29838;SDS011;18669;53.356;-1.464;2023-05-27T06:08:34;13.80;;;3.40;;
29838;SDS011;18669;53.356;-1.464;2023-05-27T06:11:19;11.45;;;3.35;;
29838;SDS011;18669;53.356;-1.464;2023-05-27T06:14:04;14.55;;;3.83;;
29838;SDS011;18669;53.356;-1.464;2023-05-27T06:16:49;8.52;;;2.75;;
29838;SDS011;18669;53.356;-1.464;2023-05-27T06:19:33;11.45;;;3.28;;
29838;SDS011;18669;53.356;-1.464;2023-05-27T06:22:18;9.32;;;2.80;;
29838;SDS011;18669;53.356;-1.464;2023-05-27T06:25:03;10.23;;;2.85;;
29838;SDS011;18669;53.356;-1.464;2023-05-27T06:27:49;7.45;;;2.78;;
29838;SDS011;18669;53.356;-1.464;2023-05-27T06:30:35;15.98;;;3.47;;
29838;SDS011;18669;53.356;-1.464;2023-05-27T06:33:21;13.88;;;2.83;;
29838;SDS011;18669;53.356;-1.464;2023-05-27T06:36:06;10.45;;;2.95;;
29838;SDS011;18669;53.356;-1.464;2023-05-27T06:38:51;11.57;;;2.83;;
29838;SDS011;18669;53.356;-1.464;2023-05-27T06:41:36;13.13;;;3.15;;
29838;SDS011;18669;53.356;-1.464;2023-05-27T06:44:21;16.67;;;3.17;;
29838;SDS011;18669;53.356;-1.464;2023-05-27T06:47:06;8.45;;;2.78;;
29838;SDS011;18669;53.356;-1.464;2023-05-27T06:49:51;10.57;;;3.00;;
29838;SDS011;18669;53.356;-1.464;2023-05-27T06:52:36;9.98;;;2.33;;
29838;SDS011;18669;53.356;-1.464;2023-05-27T06:55:20;12.98;;;3.75;;
29838;SDS011;18669;53.356;-1.464;2023-05-27T06:58:06;7.53;;;2.60;;
29838;SDS011;18669;53.356;-1.464;2023-05-27T07:00:51;12.45;;;2.65;;
29838;SDS011;18669;53.356;-1.464;2023-05-27T07:03:36;11.57;;;3.28;;
29838;SDS011;18669;53.356;-1.464;2023-05-27T07:06:21;9.10;;;2.30;;
29838;SDS011;18669;53.356;-1.464;2023-05-27T07:09:06;8.27;;;2.65;;
29838;SDS011;18669;53.356;-1.464;2023-05-27T07:11:51;9.30;;;2.50;;
29838;SDS011;18669;53.356;-1.464;2023-05-27T07:14:36;12.82;;;2.70;;
29838;SDS011;18669;53.356;-1.464;2023-05-27T07:17:21;9.93;;;2.88;;
29838;SDS011;18669;53.356;-1.464;2023-05-27T07:20:06;15.50;;;3.50;;
29838;SDS011;18669;53.356;-1.464;2023-05-27T07:22:51;11.73;;;2.80;;
29838;SDS011;18669;53.356;-1.464;2023-05-27T07:25:36;9.57;;;2.60;;
29838;SDS011;18669;53.356;-1.464;2023-05-27T07:28:24;13.52;;;3.28;;
29838;SDS011;18669;53.356;-1.464;2023-05-27T07:31:09;12.38;;;3.08;;
29838;SDS011;18669;53.356;-1.464;2023-05-27T07:33:54;8.23;;;2.95;;
29838;SDS011;18669;53.356;-1.464;2023-05-27T07:36:39;11.93;;;2.80;;
29838;SDS011;18669;53.356;-1.464;2023-05-27T07:39:24;11.20;;;3.67;;
29838;SDS011;18669;53.356;-1.464;2023-05-27T07:42:09;7.15;;;2.63;;
29838;SDS011;18669;53.356;-1.464;2023-05-27T07:44:54;16.45;;;3.75;;
29838;SDS011;18669;53.356;-1.464;2023-05-27T07:47:39;12.00;;;3.13;;
29838;SDS011;18669;53.356;-1.464;2023-05-27T07:50:24;14.65;;;3.20;;
29838;SDS011;18669;53.356;-1.464;2023-05-27T07:53:09;7.07;;;3.08;;
29838;SDS011;18669;53.356;-1.464;2023-05-27T07:55:54;14.60;;;3.45;;
29838;SDS011;18669;53.356;-1.464;2023-05-27T07:58:39;11.90;;;3.60;;
29838;SDS011;18669;53.356;-1.464;2023-05-27T08:01:24;12.75;;;3.22;;
29838;SDS011;18669;53.356;-1.464;2023-05-27T08:04:14;11.00;;;2.95;;
29838;SDS011;18669;53.356;-1.464;2023-05-27T08:06:59;13.60;;;3.10;;
29838;SDS011;18669;53.356;-1.464;2023-05-27T08:09:44;11.43;;;2.80;;
29838;SDS011;18669;53.356;-1.464;2023-05-27T08:12:29;8.77;;;2.53;;
29838;SDS011;18669;53.356;-1.464;2023-05-27T08:15:14;10.43;;;2.58;;
29838;SDS011;18669;53.356;-1.464;2023-05-27T08:17:59;14.57;;;3.00;;
29838;SDS011;18669;53.356;-1.464;2023-05-27T08:20:44;10.07;;;2.53;;
29838;SDS011;18669;53.356;-1.464;2023-05-27T08:23:29;7.85;;;2.80;;
29838;SDS011;18669;53.356;-1.464;2023-05-27T08:26:14;7.55;;;2.65;;
29838;SDS011;18669;53.356;-1.464;2023-05-27T08:28:59;10.60;;;2.65;;
29838;SDS011;18669;53.356;-1.464;2023-05-27T08:31:44;10.05;;;2.47;;
29838;SDS011;18669;53.356;-1.464;2023-05-27T08:34:30;7.60;;;2.88;;
29838;SDS011;18669;53.356;-1.464;2023-05-27T08:37:15;8.45;;;2.75;;
29838;SDS011;18669;53.356;-1.464;2023-05-27T08:40:00;9.48;;;2.97;;
29838;SDS011;18669;53.356;-1.464;2023-05-27T08:42:45;12.73;;;3.55;;
29838;SDS011;18669;53.356;-1.464;2023-05-27T08:45:32;8.30;;;2.50;;
29838;SDS011;18669;53.356;-1.464;2023-05-27T08:48:17;11.07;;;3.33;;
29838;SDS011;18669;53.356;-1.464;2023-05-27T08:51:02;11.63;;;3.08;;
29838;SDS011;18669;53.356;-1.464;2023-05-27T08:53:47;10.48;;;2.60;;
29838;SDS011;18669;53.356;-1.464;2023-05-27T08:56:32;7.40;;;2.65;;
29838;SDS011;18669;53.356;-1.464;2023-05-27T08:59:18;9.90;;;2.60;;
29838;SDS011;18669;53.356;-1.464;2023-05-27T09:02:04;7.93;;;2.65;;
29838;SDS011;18669;53.356;-1.464;2023-05-27T09:04:55;10.85;;;2.70;;
29838;SDS011;18669;53.356;-1.464;2023-05-27T09:07:41;9.70;;;2.83;;
29838;SDS011;18669;53.356;-1.464;2023-05-27T09:10:39;7.90;;;2.53;;
29838;SDS011;18669;53.356;-1.464;2023-05-27T09:13:25;10.30;;;2.75;;
29838;SDS011;18669;53.356;-1.464;2023-05-27T09:16:13;9.10;;;2.72;;
29838;SDS011;18669;53.356;-1.464;2023-05-27T09:18:58;10.77;;;2.97;;
29838;SDS011;18669;53.356;-1.464;2023-05-27T09:21:43;10.37;;;2.97;;
29838;SDS011;18669;53.356;-1.464;2023-05-27T09:24:29;12.20;;;3.00;;
29838;SDS011;18669;53.356;-1.464;2023-05-27T09:27:14;8.00;;;2.50;;
29838;SDS011;18669;53.356;-1.464;2023-05-27T09:30:05;11.05;;;3.88;;
29838;SDS011;18669;53.356;-1.464;2023-05-27T09:32:59;10.35;;;2.97;;
29838;SDS011;18669;53.356;-1.464;2023-05-27T09:35:46;8.48;;;2.33;;
29838;SDS011;18669;53.356;-1.464;2023-05-27T09:38:32;7.32;;;2.90;;
29838;SDS011;18669;53.356;-1.464;2023-05-27T09:41:22;7.93;;;2.30;;
29838;SDS011;18669;53.356;-1.464;2023-05-27T09:44:09;10.52;;;2.70;;
29838;SDS011;18669;53.356;-1.464;2023-05-27T09:46:54;7.75;;;2.50;;
29838;SDS011;18669;53.356;-1.464;2023-05-27T09:49:40;8.02;;;2.75;;
29838;SDS011;18669;53.356;-1.464;2023-05-27T09:52:27;9.65;;;2.83;;
29838;SDS011;18669;53.356;-1.464;2023-05-27T09:55:12;10.35;;;3.00;;
29838;SDS011;18669;53.356;-1.464;2023-05-27T09:57:58;10.35;;;2.70;;
29838;SDS011;18669;53.356;-1.464;2023-05-27T10:00:44;8.68;;;2.55;;
29838;SDS011;18669;53.356;-1.464;2023-05-27T10:03:32;7.95;;;3.13;;
29838;SDS011;18669;53.356;-1.464;2023-05-27T10:06:17;10.75;;;3.33;;
29838;SDS011;18669;53.356;-1.464;2023-05-27T10:09:02;8.85;;;2.92;;
29838;SDS011;18669;53.356;-1.464;2023-05-27T10:11:47;9.85;;;2.88;;
29838;SDS011;18669;53.356;-1.464;2023-05-27T10:14:33;12.90;;;2.92;;
29838;SDS011;18669;53.356;-1.464;2023-05-27T10:17:19;10.18;;;3.08;;
29838;SDS011;18669;53.356;-1.464;2023-05-27T10:20:04;14.73;;;3.08;;
29838;SDS011;18669;53.356;-1.464;2023-05-27T10:22:51;23.27;;;4.63;;
29838;SDS011;18669;53.356;-1.464;2023-05-27T10:25:38;7.97;;;2.47;;
29838;SDS011;18669;53.356;-1.464;2023-05-27T10:31:11;9.57;;;2.53;;
29838;SDS011;18669;53.356;-1.464;2023-05-27T10:33:59;7.72;;;2.70;;
29838;SDS011;18669;53.356;-1.464;2023-05-27T10:36:44;9.07;;;2.75;;
29838;SDS011;18669;53.356;-1.464;2023-05-27T10:39:30;9.15;;;2.85;;
29838;SDS011;18669;53.356;-1.464;2023-05-27T10:42:20;15.05;;;3.00;;
29838;SDS011;18669;53.356;-1.464;2023-05-27T10:45:07;14.35;;;2.80;;
29838;SDS011;18669;53.356;-1.464;2023-05-27T10:47:55;8.45;;;3.08;;
29838;SDS011;18669;53.356;-1.464;2023-05-27T10:50:40;40.22;;;4.82;;
29838;SDS011;18669;53.356;-1.464;2023-05-27T10:53:28;9.35;;;2.75;;
29838;SDS011;18669;53.356;-1.464;2023-05-27T10:56:13;6.82;;;2.50;;
29838;SDS011;18669;53.356;-1.464;2023-05-27T10:59:00;13.32;;;2.97;;
29838;SDS011;18669;53.356;-1.464;2023-05-27T11:01:48;9.55;;;2.70;;
29838;SDS011;18669;53.356;-1.464;2023-05-27T11:04:37;11.48;;;2.83;;
29838;SDS011;18669;53.356;-1.464;2023-05-27T11:07:25;7.43;;;2.20;;
29838;SDS011;18669;53.356;-1.464;2023-05-27T11:10:13;8.30;;;2.70;;
29838;SDS011;18669;53.356;-1.464;2023-05-27T11:13:01;7.70;;;2.60;;
29838;SDS011;18669;53.356;-1.464;2023-05-27T11:15:46;11.32;;;3.03;;
29838;SDS011;18669;53.356;-1.464;2023-05-27T11:21:19;5.40;;;2.22;;
29838;SDS011;18669;53.356;-1.464;2023-05-27T11:24:19;8.00;;;2.50;;
29838;SDS011;18669;53.356;-1.464;2023-05-27T11:27:09;8.77;;;2.50;;
29838;SDS011;18669;53.356;-1.464;2023-05-27T11:29:56;8.10;;;2.10;;
29838;SDS011;18669;53.356;-1.464;2023-05-27T11:32:41;8.95;;;2.95;;
29838;SDS011;18669;53.356;-1.464;2023-05-27T11:35:27;10.75;;;2.85;;
29838;SDS011;18669;53.356;-1.464;2023-05-27T11:38:17;27.13;;;4.65;;
29838;SDS011;18669;53.356;-1.464;2023-05-27T11:41:08;25.25;;;4.78;;
29838;SDS011;18669;53.356;-1.464;2023-05-27T11:43:57;8.60;;;2.60;;
29838;SDS011;18669;53.356;-1.464;2023-05-27T11:46:52;8.93;;;2.80;;
29838;SDS011;18669;53.356;-1.464;2023-05-27T11:49:46;8.63;;;2.67;;
29838;SDS011;18669;53.356;-1.464;2023-05-27T11:52:32;8.73;;;2.13;;
29838;SDS011;18669;53.356;-1.464;2023-05-27T11:58:01;5.93;;;2.47;;
29838;SDS011;18669;53.356;-1.464;2023-05-27T12:03:30;7.55;;;2.45;;
29838;SDS011;18669;53.356;-1.464;2023-05-27T12:06:17;7.10;;;2.45;;
29838;SDS011;18669;53.356;-1.464;2023-05-27T12:11:47;9.35;;;2.45;;
29838;SDS011;18669;53.356;-1.464;2023-05-27T12:14:32;12.05;;;2.70;;
29838;SDS011;18669;53.356;-1.464;2023-05-27T12:20:01;7.57;;;2.50;;
29838;SDS011;18669;53.356;-1.464;2023-05-27T12:25:31;7.65;;;2.42;;
29838;SDS011;18669;53.356;-1.464;2023-05-27T12:31:00;8.65;;;2.45;;
29838;SDS011;18669;53.356;-1.464;2023-05-27T12:33:45;9.05;;;2.63;;
29838;SDS011;18669;53.356;-1.464;2023-05-27T12:39:16;7.15;;;2.42;;
29838;SDS011;18669;53.356;-1.464;2023-05-27T12:42:01;26.70;;;4.25;;
29838;SDS011;18669;53.356;-1.464;2023-05-27T12:44:46;7.70;;;2.58;;
29838;SDS011;18669;53.356;-1.464;2023-05-27T12:47:31;8.48;;;2.10;;
29838;SDS011;18669;53.356;-1.464;2023-05-27T12:50:20;7.57;;;2.53;;
29838;SDS011;18669;53.356;-1.464;2023-05-27T12:53:07;8.20;;;2.50;;
29838;SDS011;18669;53.356;-1.464;2023-05-27T12:55:53;10.43;;;2.40;;
29838;SDS011;18669;53.356;-1.464;2023-05-27T12:58:37;10.93;;;3.00;;
29838;SDS011;18669;53.356;-1.464;2023-05-27T13:04:07;19.08;;;3.60;;
29838;SDS011;18669;53.356;-1.464;2023-05-27T13:06:52;9.63;;;2.42;;
29838;SDS011;18669;53.356;-1.464;2023-05-27T13:09:37;7.68;;;2.70;;
29838;SDS011;18669;53.356;-1.464;2023-05-27T13:12:23;9.18;;;2.72;;
29838;SDS011;18669;53.356;-1.464;2023-05-27T13:15:09;7.50;;;2.53;;
29838;SDS011;18669;53.356;-1.464;2023-05-27T13:17:54;9.32;;;2.42;;
29838;SDS011;18669;53.356;-1.464;2023-05-27T13:20:40;9.68;;;2.83;;
29838;SDS011;18669;53.356;-1.464;2023-05-27T13:23:25;5.30;;;2.10;;
29838;SDS011;18669;53.356;-1.464;2023-05-27T13:26:13;6.28;;;2.22;;
29838;SDS011;18669;53.356;-1.464;2023-05-27T13:28:59;8.80;;;2.70;;
29838;SDS011;18669;53.356;-1.464;2023-05-27T13:31:44;7.93;;;2.22;;
29838;SDS011;18669;53.356;-1.464;2023-05-27T13:34:30;7.57;;;2.00;;
29838;SDS011;18669;53.356;-1.464;2023-05-27T13:42:49;5.93;;;2.10;;
29838;SDS011;18669;53.356;-1.464;2023-05-27T13:45:35;5.97;;;2.20;;
29838;SDS011;18669;53.356;-1.464;2023-05-27T13:51:07;5.03;;;2.55;;
29838;SDS011;18669;53.356;-1.464;2023-05-27T13:53:52;5.97;;;2.17;;
29838;SDS011;18669;53.356;-1.464;2023-05-27T13:56:37;5.93;;;1.95;;
29838;SDS011;18669;53.356;-1.464;2023-05-27T13:59:22;5.43;;;2.03;;
29838;SDS011;18669;53.356;-1.464;2023-05-27T14:02:07;6.13;;;2.35;;
29838;SDS011;18669;53.356;-1.464;2023-05-27T14:04:53;7.82;;;2.40;;
29838;SDS011;18669;53.356;-1.464;2023-05-27T14:07:41;7.70;;;2.40;;
29838;SDS011;18669;53.356;-1.464;2023-05-27T14:10:27;9.93;;;2.70;;
29838;SDS011;18669;53.356;-1.464;2023-05-27T14:13:12;7.65;;;2.22;;
29838;SDS011;18669;53.356;-1.464;2023-05-27T14:18:41;6.45;;;2.33;;
29838;SDS011;18669;53.356;-1.464;2023-05-27T14:21:27;6.47;;;2.28;;
29838;SDS011;18669;53.356;-1.464;2023-05-27T14:26:57;9.63;;;2.67;;
29838;SDS011;18669;53.356;-1.464;2023-05-27T14:29:42;7.13;;;2.33;;
29838;SDS011;18669;53.356;-1.464;2023-05-27T14:32:27;12.02;;;2.47;;
29838;SDS011;18669;53.356;-1.464;2023-05-27T14:35:11;8.07;;;2.30;;
29838;SDS011;18669;53.356;-1.464;2023-05-27T14:37:56;7.97;;;2.50;;
29838;SDS011;18669;53.356;-1.464;2023-05-27T14:43:27;8.27;;;2.70;;
29838;SDS011;18669;53.356;-1.464;2023-05-27T14:46:12;9.45;;;2.72;;
29838;SDS011;18669;53.356;-1.464;2023-05-27T14:48:57;7.25;;;2.67;;
29838;SDS011;18669;53.356;-1.464;2023-05-27T14:51:42;7.32;;;2.50;;
29838;SDS011;18669;53.356;-1.464;2023-05-27T14:57:12;6.43;;;2.20;;
29838;SDS011;18669;53.356;-1.464;2023-05-27T14:59:57;7.47;;;2.40;;
29838;SDS011;18669;53.356;-1.464;2023-05-27T15:02:42;7.55;;;2.83;;
29838;SDS011;18669;53.356;-1.464;2023-05-27T15:05:27;7.35;;;2.70;;
29838;SDS011;18669;53.356;-1.464;2023-05-27T15:08:12;5.57;;;2.63;;
29838;SDS011;18669;53.356;-1.464;2023-05-27T15:11:00;6.22;;;2.40;;
29838;SDS011;18669;53.356;-1.464;2023-05-27T15:13:45;10.48;;;2.60;;
29838;SDS011;18669;53.356;-1.464;2023-05-27T15:16:29;8.77;;;2.40;;
29838;SDS011;18669;53.356;-1.464;2023-05-27T15:19:17;5.93;;;2.30;;
29838;SDS011;18669;53.356;-1.464;2023-05-27T15:22:07;9.15;;;2.85;;
29838;SDS011;18669;53.356;-1.464;2023-05-27T15:24:52;7.57;;;2.70;;
29838;SDS011;18669;53.356;-1.464;2023-05-27T15:27:37;10.80;;;2.65;;
29838;SDS011;18669;53.356;-1.464;2023-05-27T15:30:22;13.02;;;3.08;;
29838;SDS011;18669;53.356;-1.464;2023-05-27T15:33:07;7.97;;;2.75;;
29838;SDS011;18669;53.356;-1.464;2023-05-27T15:35:52;12.10;;;2.90;;
29838;SDS011;18669;53.356;-1.464;2023-05-27T15:38:37;8.43;;;2.90;;
29838;SDS011;18669;53.356;-1.464;2023-05-27T15:41:22;8.38;;;2.55;;
29838;SDS011;18669;53.356;-1.464;2023-05-27T15:44:07;9.85;;;2.60;;
29838;SDS011;18669;53.356;-1.464;2023-05-27T15:46:51;6.97;;;2.33;;
29838;SDS011;18669;53.356;-1.464;2023-05-27T15:49:36;8.18;;;3.17;;
29838;SDS011;18669;53.356;-1.464;2023-05-27T15:52:21;10.27;;;3.22;;
29838;SDS011;18669;53.356;-1.464;2023-05-27T15:55:06;9.57;;;2.80;;
29838;SDS011;18669;53.356;-1.464;2023-05-27T15:57:51;6.75;;;2.53;;
29838;SDS011;18669;53.356;-1.464;2023-05-27T16:00:36;8.23;;;2.70;;
29838;SDS011;18669;53.356;-1.464;2023-05-27T16:03:21;11.60;;;3.08;;
29838;SDS011;18669;53.356;-1.464;2023-05-27T16:06:06;7.05;;;2.75;;
29838;SDS011;18669;53.356;-1.464;2023-05-27T16:08:52;6.67;;;2.80;;
29838;SDS011;18669;53.356;-1.464;2023-05-27T16:11:37;11.23;;;3.20;;
29838;SDS011;18669;53.356;-1.464;2023-05-27T16:14:22;6.75;;;2.83;;
29838;SDS011;18669;53.356;-1.464;2023-05-27T16:17:07;11.60;;;2.88;;
29838;SDS011;18669;53.356;-1.464;2023-05-27T16:19:52;7.32;;;2.72;;
29838;SDS011;18669;53.356;-1.464;2023-05-27T16:22:38;11.00;;;2.67;;
29838;SDS011;18669;53.356;-1.464;2023-05-27T16:25:23;7.82;;;2.63;;
29838;SDS011;18669;53.356;-1.464;2023-05-27T16:28:08;10.55;;;2.60;;
29838;SDS011;18669;53.356;-1.464;2023-05-27T16:30:53;10.65;;;3.10;;
29838;SDS011;18669;53.356;-1.464;2023-05-27T16:33:37;8.65;;;3.03;;
29838;SDS011;18669;53.356;-1.464;2023-05-27T16:36:22;11.02;;;2.75;;
29838;SDS011;18669;53.356;-1.464;2023-05-27T16:39:07;11.00;;;3.28;;
29838;SDS011;18669;53.356;-1.464;2023-05-27T16:41:52;7.68;;;3.13;;
29838;SDS011;18669;53.356;-1.464;2023-05-27T16:44:37;8.25;;;3.13;;
29838;SDS011;18669;53.356;-1.464;2023-05-27T16:47:22;9.05;;;3.35;;
29838;SDS011;18669;53.356;-1.464;2023-05-27T16:50:07;6.68;;;2.92;;
29838;SDS011;18669;53.356;-1.464;2023-05-27T16:52:55;10.30;;;3.38;;
29838;SDS011;18669;53.356;-1.464;2023-05-27T16:55:40;10.43;;;3.60;;
29838;SDS011;18669;53.356;-1.464;2023-05-27T16:58:25;12.85;;;4.18;;
29838;SDS011;18669;53.356;-1.464;2023-05-27T17:01:10;8.67;;;3.87;;
29838;SDS011;18669;53.356;-1.464;2023-05-27T17:03:55;8.57;;;3.50;;
29838;SDS011;18669;53.356;-1.464;2023-05-27T17:06:41;7.70;;;3.42;;
29838;SDS011;18669;53.356;-1.464;2023-05-27T17:09:26;9.05;;;3.40;;
29838;SDS011;18669;53.356;-1.464;2023-05-27T17:12:11;8.23;;;3.45;;